Time;durP1;ratioP1;P1;durP2;ratioP2;P2;SDS_P1;SDS_P2;PMS_P1;PMS_P2;Temp;Humidity;BMP_temperature;BMP_pressure;BME280_temperature;BME280_humidity;BME280_pressure;Samples;Min_cycle;Max_cycle;Signal;HPM_P1;HPM_P2
2022/12/24 00:01:30;;;;;;;12.50;8.07;;;7.30;99.90;;;;;;5060213;28;20457;-70
2022/12/24 00:03:57;;;;;;;10.30;7.87;;;7.20;99.90;;;;;;5059552;28;20459;-69
2022/12/24 00:06:24;;;;;;;11.20;8.00;;;7.30;99.90;;;;;;5059430;28;20795;-68
2022/12/24 00:08:51;;;;;;;9.50;7.00;;;7.20;99.90;;;;;;5061134;28;20466;-69
2022/12/24 00:11:18;;;;;;;9.23;7.13;;;7.20;99.90;;;;;;5060872;28;20506;-70
2022/12/24 00:13:45;;;;;;;12.30;8.30;;;7.20;99.90;;;;;;5060372;28;20455;-68
2022/12/24 00:16:12;;;;;;;11.37;7.63;;;7.20;99.90;;;;;;5059259;28;20457;-69
2022/12/24 00:18:40;;;;;;;13.33;7.43;;;7.20;99.90;;;;;;5060073;28;20943;-69
2022/12/24 00:21:07;;;;;;;12.10;7.43;;;7.20;99.90;;;;;;5059607;28;20499;-68
2022/12/24 00:23:34;;;;;;;10.80;7.73;;;7.20;99.90;;;;;;5059428;28;20455;-69
2022/12/24 00:26:01;;;;;;;10.30;7.67;;;7.10;99.90;;;;;;5060211;28;20458;-69
2022/12/24 00:28:27;;;;;;;8.37;6.80;;;7.10;99.90;;;;;;5059750;28;20570;-69
2022/12/24 00:30:54;;;;;;;12.40;7.00;;;7.10;99.90;;;;;;5060612;28;20463;-68
2022/12/24 00:33:21;;;;;;;9.97;7.07;;;7.10;99.90;;;;;;5060212;28;20455;-69
2022/12/24 00:35:51;;;;;;;8.90;6.77;;;7.10;99.90;;;;;;5060040;28;20470;-69
2022/12/24 00:38:18;;;;;;;9.03;6.60;;;7.10;99.90;;;;;;5057847;28;20455;-70
2022/12/24 00:40:45;;;;;;;7.37;5.93;;;7.10;99.90;;;;;;5058308;28;20465;-69
2022/12/24 00:43:12;;;;;;;12.17;7.13;;;7.10;99.90;;;;;;5059302;28;20516;-68
2022/12/24 00:45:38;;;;;;;9.40;7.00;;;7.10;99.90;;;;;;5059224;28;20854;-70
2022/12/24 00:48:06;;;;;;;11.17;6.63;;;7.10;99.90;;;;;;5058405;28;20455;-68
2022/12/24 00:50:33;;;;;;;8.03;6.50;;;7.10;99.90;;;;;;5058903;28;20451;-70
2022/12/24 00:53:01;;;;;;;11.27;6.80;;;7.10;99.90;;;;;;5058807;28;20493;-69
2022/12/24 00:55:28;;;;;;;9.43;6.70;;;7.10;99.90;;;;;;5058827;28;20455;-68
2022/12/24 00:57:54;;;;;;;8.40;6.67;;;7.10;99.90;;;;;;5059374;28;20469;-69
2022/12/24 01:00:21;;;;;;;9.30;6.43;;;7.10;99.90;;;;;;5058971;28;20546;-69
2022/12/24 01:02:48;;;;;;;13.23;7.73;;;7.00;99.90;;;;;;5058254;28;20451;-69
2022/12/24 01:05:14;;;;;;;10.37;7.00;;;7.10;99.90;;;;;;5058139;28;20459;-67
2022/12/24 01:07:43;;;;;;;12.13;7.40;;;7.00;99.90;;;;;;5058303;28;20545;-69
2022/12/24 01:10:12;;;;;;;13.00;8.27;;;7.00;99.90;;;;;;5057738;28;20470;-69
2022/12/24 01:12:40;;;;;;;13.30;8.40;;;7.00;99.90;;;;;;5058208;28;20479;-69
2022/12/24 01:15:08;;;;;;;11.13;7.63;;;7.00;99.90;;;;;;5058353;28;20567;-67
2022/12/24 01:17:35;;;;;;;11.77;8.10;;;7.10;99.90;;;;;;5057587;28;20463;-69
2022/12/24 01:20:04;;;;;;;10.73;7.20;;;7.00;99.90;;;;;;5058230;28;20481;-69
2022/12/24 01:22:31;;;;;;;13.77;7.80;;;7.00;99.90;;;;;;5057965;28;20923;-69
2022/12/24 01:24:58;;;;;;;10.03;7.23;;;7.00;99.90;;;;;;5057477;28;20467;-68
2022/12/24 01:27:26;;;;;;;11.20;7.70;;;7.00;99.90;;;;;;5057626;28;20469;-69
2022/12/24 01:29:53;;;;;;;11.50;7.83;;;7.00;99.90;;;;;;5058047;28;20454;-68
2022/12/24 01:32:20;;;;;;;12.40;8.80;;;7.00;99.90;;;;;;5057566;28;20489;-68
2022/12/24 01:34:47;;;;;;;11.47;8.30;;;7.00;99.90;;;;;;5057667;28;20469;-68
2022/12/24 01:37:13;;;;;;;11.57;8.17;;;7.00;99.90;;;;;;5057065;28;20459;-69
2022/12/24 01:39:40;;;;;;;12.33;8.60;;;7.00;99.90;;;;;;5057449;28;20455;-69
2022/12/24 01:45:43;;;;;;;14.73;8.13;;;7.10;99.90;;;;;;5001213;28;20468;-69
2022/12/24 01:48:24;;;;;;;12.73;9.20;;;7.10;99.90;;;;;;5057137;28;20430;-69
2022/12/24 01:51:00;;;;;;;13.63;9.70;;;7.10;99.90;;;;;;5057979;28;20451;-69
2022/12/24 01:53:28;;;;;;;13.87;9.10;;;7.10;99.90;;;;;;5057610;28;20880;-69
2022/12/24 01:55:55;;;;;;;14.63;9.70;;;7.10;99.90;;;;;;5057622;28;20569;-68
2022/12/24 01:58:25;;;;;;;13.97;9.30;;;7.10;99.90;;;;;;5057284;28;20460;-68
2022/12/24 02:00:53;;;;;;;11.80;9.03;;;7.10;99.90;;;;;;5057624;28;20459;-69
2022/12/24 02:03:21;;;;;;;20.47;12.53;;;7.10;99.90;;;;;;5057171;28;20451;-69
2022/12/24 02:05:50;;;;;;;13.27;9.40;;;7.10;99.90;;;;;;5056520;28;20927;-69
2022/12/24 02:08:18;;;;;;;15.17;9.83;;;7.10;99.90;;;;;;5056436;28;20891;-69
2022/12/24 02:10:45;;;;;;;12.17;8.77;;;7.10;99.90;;;;;;5056760;28;20455;-68
2022/12/24 02:13:13;;;;;;;12.17;8.73;;;7.10;99.90;;;;;;5056762;28;20475;-69
2022/12/24 02:15:54;;;;;;;10.80;8.90;;;7.10;99.90;;;;;;5058001;28;20459;-69
2022/12/24 02:18:29;;;;;;;12.67;8.57;;;7.10;99.90;;;;;;5058020;28;20439;-68
2022/12/24 02:21:35;;;;;;;13.13;9.30;;;7.10;99.90;;;;;;5058952;28;20457;-69
2022/12/24 02:24:44;;;;;;;13.40;9.27;;;7.10;99.90;;;;;;5060667;28;20436;-68
2022/12/24 02:27:21;;;;;;;10.87;8.10;;;7.10;99.90;;;;;;4979599;28;20755;-68
2022/12/24 02:30:08;;;;;;;12.33;9.10;;;7.10;99.90;;;;;;5051583;28;20455;-68
2022/12/24 02:33:04;;;;;;;12.30;8.47;;;7.00;99.90;;;;;;5057192;28;20506;-68
2022/12/24 02:35:40;;;;;;;12.53;8.87;;;7.00;99.90;;;;;;5056269;28;20864;-69
2022/12/24 02:38:14;;;;;;;13.80;9.03;;;7.00;99.90;;;;;;5055820;28;20443;-69
2022/12/24 02:40:46;;;;;;;16.43;10.20;;;7.00;99.90;;;;;;5056437;28;20906;-68
2022/12/24 02:43:16;;;;;;;12.97;9.23;;;7.00;99.90;;;;;;5056330;28;20440;-68
2022/12/24 02:45:47;;;;;;;15.63;9.10;;;7.10;99.90;;;;;;5056383;28;20491;-69
2022/12/24 02:48:17;;;;;;;13.27;9.30;;;7.10;99.90;;;;;;5056909;28;20443;-69
2022/12/24 02:51:04;;;;;;;14.20;9.20;;;7.10;99.90;;;;;;5058018;28;20462;-69
2022/12/24 02:53:32;;;;;;;13.03;9.33;;;7.10;99.90;;;;;;5056638;28;20474;-69
2022/12/24 02:56:24;;;;;;;14.17;10.47;;;7.10;99.90;;;;;;5056418;28;20455;-69
2022/12/24 02:59:09;;;;;;;14.63;9.53;;;7.10;99.90;;;;;;5056642;28;20451;-69
2022/12/24 03:01:48;;;;;;;12.10;9.43;;;7.10;99.90;;;;;;5057655;28;20446;-68
2022/12/24 03:04:38;;;;;;;13.90;9.60;;;7.10;99.90;;;;;;5058418;28;20443;-68
2022/12/24 03:07:12;;;;;;;17.03;9.80;;;7.10;99.90;;;;;;5057466;28;20444;-68
2022/12/24 03:09:53;;;;;;;14.07;9.30;;;7.10;99.90;;;;;;5056582;28;20883;-68
2022/12/24 03:12:27;;;;;;;15.00;10.63;;;7.10;99.90;;;;;;5055911;28;20467;-68
2022/12/24 03:14:54;;;;;;;15.03;9.90;;;7.10;99.90;;;;;;5056297;28;20471;-69
2022/12/24 03:17:22;;;;;;;13.37;9.37;;;7.10;99.90;;;;;;5056101;28;20466;-68
2022/12/24 03:19:50;;;;;;;14.93;10.27;;;7.00;99.90;;;;;;5056306;28;20469;-69
2022/12/24 03:22:18;;;;;;;14.30;10.40;;;7.00;99.90;;;;;;5056948;28;20517;-68
2022/12/24 03:24:45;;;;;;;14.20;9.70;;;7.00;99.90;;;;;;5057462;28;20459;-69
2022/12/24 03:27:14;;;;;;;14.73;9.67;;;7.10;99.90;;;;;;5056751;28;20466;-68
2022/12/24 03:29:41;;;;;;;15.63;10.10;;;7.00;99.90;;;;;;5056559;28;20465;-68
2022/12/24 03:32:08;;;;;;;14.63;8.83;;;7.00;99.90;;;;;;5056857;28;20490;-69
2022/12/24 03:34:36;;;;;;;16.70;10.33;;;7.00;99.90;;;;;;5056965;28;20542;-68
2022/12/24 03:37:03;;;;;;;16.80;11.17;;;7.00;99.90;;;;;;5056860;28;20455;-68
2022/12/24 03:39:30;;;;;;;14.70;9.73;;;7.00;99.90;;;;;;5057814;28;20543;-69
2022/12/24 03:41:57;;;;;;;13.33;9.60;;;7.00;99.90;;;;;;5057993;28;20459;-69
2022/12/24 03:44:24;;;;;;;14.93;9.60;;;7.00;99.90;;;;;;5057310;28;20471;-69
2022/12/24 03:46:50;;;;;;;14.70;9.70;;;7.00;99.90;;;;;;5058091;28;20501;-69
2022/12/24 03:49:17;;;;;;;11.60;8.40;;;7.00;99.90;;;;;;5059253;28;20454;-68
2022/12/24 03:51:45;;;;;;;14.70;9.60;;;7.00;99.90;;;;;;5062116;28;20459;-69
2022/12/24 03:54:12;;;;;;;11.87;8.77;;;7.00;99.90;;;;;;5060613;28;20787;-69
2022/12/24 03:56:39;;;;;;;12.17;9.67;;;7.00;99.90;;;;;;5060958;28;20459;-69
2022/12/24 03:59:06;;;;;;;14.70;10.60;;;7.00;99.90;;;;;;5066364;28;20785;-69
2022/12/24 04:01:33;;;;;;;11.03;8.37;;;7.00;99.90;;;;;;5060103;28;20470;-69
2022/12/24 04:03:59;;;;;;;12.17;8.53;;;7.00;99.90;;;;;;5059622;28;20451;-68
2022/12/24 04:06:26;;;;;;;13.97;9.30;;;7.00;99.90;;;;;;5059122;28;20481;-69
2022/12/24 04:08:54;;;;;;;13.30;9.00;;;7.00;99.90;;;;;;5059441;28;20541;-68
2022/12/24 04:11:21;;;;;;;11.57;8.77;;;7.00;99.90;;;;;;5059863;28;20934;-69
2022/12/24 04:13:48;;;;;;;14.33;9.87;;;7.00;99.90;;;;;;5059121;28;20942;-68
2022/12/24 04:16:16;;;;;;;14.40;10.37;;;7.10;99.90;;;;;;5059249;28;20462;-69
2022/12/24 04:18:44;;;;;;;13.60;8.00;;;7.10;99.90;;;;;;5059059;28;20459;-68
2022/12/24 04:21:11;;;;;;;16.93;9.93;;;7.10;99.90;;;;;;5059914;28;20919;-68
2022/12/24 04:23:40;;;;;;;16.27;10.67;;;7.00;99.90;;;;;;5058692;28;20946;-68
2022/12/24 04:26:10;;;;;;;13.57;9.00;;;7.00;99.90;;;;;;5058756;28;20502;-69
2022/12/24 04:28:37;;;;;;;12.77;8.30;;;7.00;99.90;;;;;;5059031;28;20554;-68
2022/12/24 04:31:06;;;;;;;11.03;8.03;;;7.00;99.90;;;;;;5059373;28;21004;-69
2022/12/24 04:33:33;;;;;;;13.50;9.03;;;7.00;99.90;;;;;;5058882;28;20485;-69
2022/12/24 04:36:02;;;;;;;11.77;8.73;;;7.00;99.90;;;;;;5058659;28;20459;-67
2022/12/24 04:38:29;;;;;;;14.73;8.43;;;7.00;99.90;;;;;;5058957;28;20455;-68
2022/12/24 04:41:00;;;;;;;15.93;8.90;;;7.00;99.90;;;;;;5059441;28;20451;-68
2022/12/24 04:43:29;;;;;;;12.80;8.10;;;7.10;99.90;;;;;;5059143;28;20455;-68
2022/12/24 04:45:56;;;;;;;13.00;9.27;;;7.00;99.90;;;;;;5059344;28;20822;-69
2022/12/24 04:48:23;;;;;;;13.70;10.53;;;7.10;99.90;;;;;;5059035;28;20455;-69
2022/12/24 04:50:50;;;;;;;13.17;8.63;;;7.00;99.90;;;;;;5058952;28;20465;-68
2022/12/24 04:53:17;;;;;;;12.40;8.73;;;7.10;99.90;;;;;;5058624;28;20824;-69
2022/12/24 04:55:46;;;;;;;13.13;9.17;;;7.00;99.90;;;;;;5059402;28;20469;-68
2022/12/24 04:58:14;;;;;;;12.73;9.40;;;7.10;99.90;;;;;;5058710;28;20455;-67
2022/12/24 05:00:42;;;;;;;11.70;8.23;;;7.10;99.90;;;;;;5058040;28;20450;-67
2022/12/24 05:03:09;;;;;;;12.17;9.30;;;7.10;99.90;;;;;;5058611;28;20760;-68
2022/12/24 05:05:36;;;;;;;11.60;7.77;;;7.10;99.90;;;;;;5059426;28;20480;-68
2022/12/24 05:08:03;;;;;;;11.87;7.80;;;7.10;99.90;;;;;;5059526;28;20451;-68
2022/12/24 05:10:30;;;;;;;12.40;8.47;;;7.20;99.90;;;;;;5058503;28;20459;-68
2022/12/24 05:12:56;;;;;;;9.60;7.60;;;7.20;99.90;;;;;;5059151;28;20573;-69
2022/12/24 05:15:24;;;;;;;13.23;8.00;;;7.20;99.90;;;;;;5058794;28;20463;-70
2022/12/24 05:17:52;;;;;;;11.03;8.30;;;7.20;99.90;;;;;;5058585;28;20455;-69
2022/12/24 05:20:19;;;;;;;11.90;8.00;;;7.20;99.90;;;;;;5058720;28;20551;-68
2022/12/24 05:28:18;;;;;;;10.80;7.93;;;7.20;99.90;;;;;;5057738;28;20426;-69
2022/12/24 05:30:45;;;;;;;12.20;8.60;;;7.20;99.90;;;;;;5058115;28;20455;-69
2022/12/24 05:33:13;;;;;;;9.90;7.67;;;7.20;99.90;;;;;;5057902;28;20525;-68
2022/12/24 05:35:40;;;;;;;10.87;8.00;;;7.20;99.90;;;;;;5057573;28;20478;-68
2022/12/24 05:38:07;;;;;;;11.30;8.20;;;7.20;99.90;;;;;;5058619;28;20459;-68
2022/12/24 05:40:33;;;;;;;10.07;8.17;;;7.20;99.90;;;;;;5057602;28;20458;-68
2022/12/24 05:43:00;;;;;;;12.23;8.70;;;7.20;99.90;;;;;;5057972;28;20451;-67
2022/12/24 05:45:28;;;;;;;10.20;7.20;;;7.20;99.90;;;;;;5057778;28;20490;-68
2022/12/24 05:47:54;;;;;;;10.30;8.37;;;7.20;99.90;;;;;;5057541;28;20895;-70
2022/12/24 05:50:23;;;;;;;11.47;8.30;;;7.20;99.90;;;;;;5057978;28;20474;-69
2022/12/24 05:52:49;;;;;;;10.27;7.40;;;7.20;99.90;;;;;;5057725;28;20523;-68
2022/12/24 05:55:16;;;;;;;10.37;7.90;;;7.20;99.90;;;;;;5057078;28;20459;-69
2022/12/24 05:57:43;;;;;;;13.03;9.27;;;7.20;99.90;;;;;;5057693;28;20847;-69
2022/12/24 06:00:11;;;;;;;10.07;7.67;;;7.20;99.90;;;;;;5057891;28;20459;-68
2022/12/24 06:02:38;;;;;;;11.53;8.43;;;7.20;99.90;;;;;;5057577;28;20462;-67
2022/12/24 06:05:05;;;;;;;11.80;8.40;;;7.20;99.90;;;;;;5056767;28;20550;-68
2022/12/24 06:07:34;;;;;;;12.17;9.00;;;7.20;99.90;;;;;;5057029;28;20459;-68
2022/12/24 06:10:01;;;;;;;13.20;8.03;;;7.20;99.90;;;;;;5056678;28;20454;-68
2022/12/24 06:12:28;;;;;;;12.03;8.97;;;7.20;99.90;;;;;;5056895;28;20460;-68
2022/12/24 06:14:54;;;;;;;10.53;8.07;;;7.20;99.90;;;;;;5057386;28;20513;-67
2022/12/24 06:17:21;;;;;;;11.23;8.43;;;7.20;99.90;;;;;;5057142;28;20455;-67
2022/12/24 06:19:48;;;;;;;10.60;7.53;;;7.20;99.90;;;;;;5056624;28;20459;-68
2022/12/24 06:22:15;;;;;;;11.23;8.60;;;7.20;99.90;;;;;;5057390;28;20485;-69
2022/12/24 06:24:43;;;;;;;13.00;9.00;;;7.20;99.90;;;;;;5057792;28;20461;-69
2022/12/24 06:27:10;;;;;;;11.40;8.53;;;7.20;99.90;;;;;;5057445;28;20464;-67
2022/12/24 06:29:36;;;;;;;14.20;9.53;;;7.20;99.90;;;;;;5057345;28;20455;-69
2022/12/24 06:32:03;;;;;;;12.03;9.80;;;7.20;99.90;;;;;;5057658;28;20465;-68
2022/12/24 06:34:30;;;;;;;14.07;8.50;;;7.20;99.90;;;;;;5058101;28;20483;-68
2022/12/24 06:36:57;;;;;;;12.50;9.50;;;7.20;99.90;;;;;;5057081;28;20467;-67
2022/12/24 06:39:24;;;;;;;16.03;9.70;;;7.20;99.90;;;;;;5056861;28;20459;-68
2022/12/24 06:41:52;;;;;;;16.20;10.67;;;7.30;99.90;;;;;;5057692;28;20463;-67
2022/12/24 06:44:19;;;;;;;12.73;9.03;;;7.20;99.90;;;;;;5059726;28;20763;-68
2022/12/24 06:46:46;;;;;;;12.83;9.57;;;7.20;99.90;;;;;;5059969;28;20578;-69
2022/12/24 06:49:13;;;;;;;15.23;10.77;;;7.20;99.90;;;;;;5059544;28;20455;-68
2022/12/24 06:51:40;;;;;;;13.27;9.30;;;7.20;99.90;;;;;;5059217;28;20455;-67
2022/12/24 06:54:07;;;;;;;12.50;9.37;;;7.10;99.90;;;;;;5060198;28;20485;-68
2022/12/24 06:56:34;;;;;;;22.73;13.63;;;7.10;99.90;;;;;;5059940;28;20459;-68
2022/12/24 06:59:02;;;;;;;18.73;14.07;;;7.20;99.90;;;;;;5059980;28;20490;-68
2022/12/24 07:01:29;;;;;;;15.47;12.30;;;7.20;99.90;;;;;;5058836;28;20470;-67
2022/12/24 07:03:56;;;;;;;14.93;10.80;;;7.20;99.90;;;;;;5059248;28;20454;-68
2022/12/24 07:06:25;;;;;;;11.70;9.10;;;7.10;99.90;;;;;;5058898;28;20473;-68
2022/12/24 07:08:52;;;;;;;12.43;9.93;;;7.20;99.90;;;;;;5058888;28;20532;-69
2022/12/24 07:11:20;;;;;;;12.70;10.37;;;7.20;99.90;;;;;;5057780;28;20455;-69
2022/12/24 07:13:48;;;;;;;14.57;10.13;;;7.20;99.90;;;;;;5056545;28;20496;-69
2022/12/24 07:16:16;;;;;;;38.23;26.60;;;7.20;99.90;;;;;;5056767;28;20483;-69
2022/12/24 07:18:43;;;;;;;16.30;12.20;;;7.20;99.90;;;;;;5057035;28;20459;-68
2022/12/24 07:21:10;;;;;;;16.60;9.90;;;7.20;99.90;;;;;;5057107;28;20459;-69
2022/12/24 07:23:37;;;;;;;11.37;9.10;;;7.20;99.90;;;;;;5057354;28;20463;-68
2022/12/24 07:26:06;;;;;;;12.10;9.07;;;7.20;99.90;;;;;;5060015;28;20466;-69
2022/12/24 07:28:33;;;;;;;13.10;9.23;;;7.20;99.90;;;;;;5060535;28;20454;-69
2022/12/24 07:31:00;;;;;;;11.03;8.30;;;7.10;99.90;;;;;;5060221;28;20482;-69
2022/12/24 07:33:28;;;;;;;12.37;7.73;;;7.10;99.90;;;;;;5059958;28;20479;-71
2022/12/24 07:36:00;;;;;;;13.17;9.13;;;7.10;99.90;;;;;;5060048;28;20459;-68
2022/12/24 07:38:27;;;;;;;11.03;8.13;;;7.10;99.90;;;;;;5059901;28;20455;-68
2022/12/24 07:40:54;;;;;;;11.27;8.50;;;7.10;99.90;;;;;;5059935;28;20541;-68
2022/12/24 07:43:20;;;;;;;13.60;9.17;;;7.10;99.90;;;;;;5059710;28;20459;-68
2022/12/24 07:45:47;;;;;;;11.17;8.30;;;7.10;99.90;;;;;;5059603;28;20487;-68
2022/12/24 07:48:14;;;;;;;10.57;8.30;;;7.10;99.90;;;;;;5059464;28;20462;-68
2022/12/24 07:50:43;;;;;;;12.27;7.93;;;7.10;99.90;;;;;;5059651;28;20785;-68
2022/12/24 07:53:09;;;;;;;11.27;8.43;;;7.10;99.90;;;;;;5059899;28;20459;-68
2022/12/24 07:55:36;;;;;;;12.23;9.07;;;7.00;99.90;;;;;;5060057;28;20454;-69
2022/12/24 07:58:03;;;;;;;12.80;7.73;;;7.10;99.90;;;;;;5058700;28;20455;-69
2022/12/24 08:00:30;;;;;;;13.57;8.23;;;7.10;99.90;;;;;;5060716;28;20469;-69
2022/12/24 08:02:58;;;;;;;11.43;8.13;;;7.10;99.90;;;;;;5059410;28;20456;-68
2022/12/24 08:05:25;;;;;;;12.17;7.50;;;7.10;99.90;;;;;;5059395;28;20915;-67
2022/12/24 08:07:54;;;;;;;13.40;8.57;;;7.10;99.90;;;;;;5059725;28;20471;-68
2022/12/24 08:10:21;;;;;;;10.37;7.50;;;7.10;99.90;;;;;;5060255;28;20465;-69
2022/12/24 08:12:48;;;;;;;12.80;9.20;;;7.20;99.90;;;;;;5061009;28;20845;-68
2022/12/24 08:15:16;;;;;;;9.17;8.17;;;7.20;99.90;;;;;;5060630;28;20757;-66
2022/12/24 08:17:43;;;;;;;11.67;8.70;;;7.20;99.90;;;;;;5060827;28;20846;-69
2022/12/24 08:20:11;;;;;;;11.43;8.43;;;7.20;99.90;;;;;;5060549;28;20465;-68
2022/12/24 08:22:37;;;;;;;14.70;9.23;;;7.20;99.90;;;;;;5059939;28;20465;-67
2022/12/24 08:25:07;;;;;;;14.33;8.70;;;7.20;99.90;;;;;;5059441;28;20453;-68
2022/12/24 08:27:34;;;;;;;12.00;9.53;;;7.20;99.90;;;;;;5059756;28;20469;-68
2022/12/24 08:30:00;;;;;;;13.57;9.40;;;7.20;99.90;;;;;;5059831;28;20919;-69
2022/12/24 08:32:27;;;;;;;13.87;9.40;;;7.20;99.90;;;;;;5059318;28;20451;-66
2022/12/24 08:34:54;;;;;;;12.87;9.13;;;7.20;99.90;;;;;;5056638;28;20491;-66
2022/12/24 08:37:21;;;;;;;13.27;8.63;;;7.20;99.90;;;;;;5056469;28;20908;-67
2022/12/24 08:39:48;;;;;;;13.03;9.17;;;7.20;99.90;;;;;;5056808;28;20454;-66
2022/12/24 08:42:16;;;;;;;13.07;8.60;;;7.20;99.90;;;;;;5056882;28;20454;-67
2022/12/24 08:44:43;;;;;;;12.03;8.27;;;7.20;99.90;;;;;;5057026;28;20787;-65
2022/12/24 08:47:10;;;;;;;11.60;8.80;;;7.20;99.90;;;;;;5056630;28;20490;-66
2022/12/24 08:49:38;;;;;;;13.87;8.70;;;7.30;99.90;;;;;;5056927;28;20938;-66
2022/12/24 08:52:05;;;;;;;14.43;8.87;;;7.30;99.90;;;;;;5057232;28;20470;-66
2022/12/24 08:54:32;;;;;;;10.30;7.60;;;7.40;99.90;;;;;;5056947;28;20506;-67
2022/12/24 08:56:59;;;;;;;12.60;10.10;;;7.40;99.90;;;;;;5056690;28;20891;-67
2022/12/24 08:59:27;;;;;;;12.67;8.37;;;7.40;99.90;;;;;;5056530;28;20995;-66
2022/12/24 09:01:54;;;;;;;11.87;8.87;;;7.40;99.90;;;;;;5056659;28;20459;-67
2022/12/24 09:04:21;;;;;;;10.67;7.53;;;7.50;99.90;;;;;;5056856;28;20540;-66
2022/12/24 09:06:48;;;;;;;11.13;8.70;;;7.50;99.90;;;;;;5056554;28;20458;-66
2022/12/24 09:09:14;;;;;;;13.07;8.40;;;7.50;99.90;;;;;;5056992;28;20459;-66
2022/12/24 09:11:41;;;;;;;10.57;8.20;;;7.50;99.90;;;;;;5056367;28;20935;-65
2022/12/24 09:14:08;;;;;;;10.60;7.90;;;7.50;99.90;;;;;;5055957;28;20475;-66
2022/12/24 09:16:36;;;;;;;10.70;7.63;;;7.50;99.90;;;;;;5056675;28;20455;-66
2022/12/24 09:19:03;;;;;;;10.63;7.80;;;7.60;99.90;;;;;;5056114;28;21011;-67
2022/12/24 09:21:30;;;;;;;11.90;7.60;;;7.60;99.90;;;;;;5056064;28;20791;-67
2022/12/24 09:23:59;;;;;;;10.23;7.60;;;7.60;99.90;;;;;;5055810;28;20458;-67
2022/12/24 09:26:28;;;;;;;12.10;8.33;;;7.50;99.90;;;;;;5055910;28;20462;-66
2022/12/24 09:28:56;;;;;;;9.57;7.37;;;7.60;99.90;;;;;;5056071;28;20459;-67
2022/12/24 09:31:23;;;;;;;10.50;7.40;;;7.50;99.90;;;;;;5056307;28;20796;-66
2022/12/24 09:33:51;;;;;;;13.70;8.43;;;7.60;99.90;;;;;;5055763;28;20463;-66
2022/12/24 09:36:19;;;;;;;12.03;8.07;;;7.60;99.90;;;;;;5055981;28;20459;-68
2022/12/24 09:38:47;;;;;;;10.00;7.50;;;7.60;99.90;;;;;;5055422;28;20461;-66
2022/12/24 09:41:20;;;;;;;9.20;6.80;;;7.60;99.90;;;;;;5056047;28;20463;-66
2022/12/24 09:43:49;;;;;;;12.27;7.27;;;7.60;99.90;;;;;;5056102;28;20783;-67
2022/12/24 09:46:21;;;;;;;11.23;7.63;;;7.60;99.90;;;;;;5055075;28;20507;-66
2022/12/24 09:48:52;;;;;;;12.17;8.27;;;7.60;99.90;;;;;;5055721;28;20440;-67
2022/12/24 09:51:29;;;;;;;11.50;7.67;;;7.70;99.90;;;;;;5055895;28;20447;-67
2022/12/24 09:54:01;;;;;;;10.47;7.30;;;7.60;99.90;;;;;;5055812;28;20470;-67
2022/12/24 09:56:33;;;;;;;11.80;7.93;;;7.60;99.90;;;;;;5055566;28;20447;-68
2022/12/24 09:59:02;;;;;;;9.97;7.23;;;7.60;99.90;;;;;;5055467;28;20457;-68
2022/12/24 10:01:31;;;;;;;10.60;7.77;;;7.60;99.90;;;;;;5055706;28;20455;-66
2022/12/24 10:04:02;;;;;;;11.20;7.33;;;7.60;99.90;;;;;;5055179;28;20485;-67
2022/12/24 10:06:36;;;;;;;12.33;8.30;;;7.60;99.90;;;;;;5055650;28;20470;-66
2022/12/24 10:09:14;;;;;;;11.37;8.17;;;7.60;99.90;;;;;;5055372;28;20439;-65
2022/12/24 10:11:49;;;;;;;14.67;8.83;;;7.60;99.90;;;;;;5055752;28;20443;-67
2022/12/24 10:14:28;;;;;;;12.60;9.07;;;7.60;99.90;;;;;;5055122;28;20939;-66
2022/12/24 10:17:03;;;;;;;13.57;10.00;;;7.60;99.90;;;;;;5055366;28;20444;-67
2022/12/24 10:19:42;;;;;;;13.63;10.13;;;7.60;99.90;;;;;;5055214;28;20443;-67
2022/12/24 10:22:20;;;;;;;15.03;10.20;;;7.60;99.90;;;;;;5055563;28;20443;-67
2022/12/24 10:24:53;;;;;;;14.27;10.50;;;7.50;99.90;;;;;;5055424;28;20444;-67
2022/12/24 10:27:24;;;;;;;15.47;10.57;;;7.50;99.90;;;;;;5055320;28;20447;-67
2022/12/24 10:29:58;;;;;;;18.00;10.20;;;7.50;99.90;;;;;;5055167;28;20915;-66
2022/12/24 10:32:29;;;;;;;13.73;10.30;;;7.50;99.90;;;;;;5055027;28;20452;-67
2022/12/24 10:35:01;;;;;;;15.57;10.83;;;7.50;99.90;;;;;;5055139;28;20743;-66
2022/12/24 10:37:30;;;;;;;16.10;11.40;;;7.50;99.90;;;;;;5054845;28;20473;-66
2022/12/24 10:39:59;;;;;;;16.47;11.50;;;7.50;99.90;;;;;;5054229;28;20489;-66
2022/12/24 10:42:34;;;;;;;16.60;11.60;;;7.50;99.90;;;;;;5035038;28;20543;-67
2022/12/24 10:45:05;;;;;;;14.27;9.90;;;7.60;99.90;;;;;;5035255;28;20446;-68
2022/12/24 10:47:34;;;;;;;16.13;10.73;;;7.60;99.90;;;;;;5034413;28;20479;-68
2022/12/24 10:50:10;;;;;;;14.03;10.63;;;7.60;99.90;;;;;;5035049;28;20456;-68
2022/12/24 10:52:41;;;;;;;16.80;12.13;;;7.50;99.90;;;;;;5034252;28;20440;-67
2022/12/24 10:55:11;;;;;;;15.90;11.43;;;7.60;99.90;;;;;;5034248;28;20501;-67
2022/12/24 10:57:39;;;;;;;17.47;12.17;;;7.60;99.90;;;;;;5034308;28;20554;-68
2022/12/24 11:00:07;;;;;;;17.23;12.77;;;7.60;99.90;;;;;;5033867;28;20547;-66
2022/12/24 11:02:36;;;;;;;19.07;12.30;;;7.60;99.90;;;;;;5034791;28;20791;-66
2022/12/24 11:05:08;;;;;;;17.27;12.10;;;7.70;99.90;;;;;;5035372;28;20452;-67
2022/12/24 11:07:34;;;;;;;20.80;13.67;;;7.70;99.90;;;;;;5034910;28;20458;-67
2022/12/24 11:10:04;;;;;;;16.83;12.13;;;7.70;99.90;;;;;;5034459;28;20456;-67
2022/12/24 11:12:34;;;;;;;19.90;13.20;;;7.70;99.90;;;;;;5035312;28;20456;-67
2022/12/24 11:15:04;;;;;;;17.60;11.80;;;7.60;99.90;;;;;;5034206;28;20498;-67
2022/12/24 11:17:31;;;;;;;16.57;12.30;;;7.60;99.90;;;;;;5034316;28;20800;-68
2022/12/24 11:19:59;;;;;;;16.83;12.07;;;7.60;99.90;;;;;;5034630;28;20855;-68
2022/12/24 11:22:30;;;;;;;16.37;11.33;;;7.60;99.90;;;;;;5034025;28;20456;-67
2022/12/24 11:25:01;;;;;;;16.17;10.90;;;7.60;99.90;;;;;;5048438;28;20455;-67
2022/12/24 11:27:33;;;;;;;14.70;10.50;;;7.60;99.90;;;;;;5054476;28;20454;-68
2022/12/24 11:30:25;;;;;;;16.90;11.67;;;7.50;99.90;;;;;;5054491;28;20447;-68
2022/12/24 11:33:19;;;;;;;16.43;11.20;;;7.50;99.90;;;;;;5051091;28;20470;-67
2022/12/24 11:35:49;;;;;;;15.10;10.70;;;7.40;99.90;;;;;;5054164;28;20467;-68
2022/12/24 11:38:22;;;;;;;18.60;11.10;;;7.40;99.90;;;;;;5054164;28;20447;-67
2022/12/24 11:40:51;;;;;;;16.40;11.80;;;7.40;99.90;;;;;;5054249;28;20458;-67
2022/12/24 11:43:20;;;;;;;18.43;11.53;;;7.40;99.90;;;;;;5053277;28;20455;-65
2022/12/24 11:45:52;;;;;;;17.37;12.30;;;7.40;99.90;;;;;;5053578;28;20485;-67
2022/12/24 11:48:27;;;;;;;14.73;10.87;;;7.40;99.90;;;;;;5053955;28;20455;-68
2022/12/24 11:50:58;;;;;;;17.07;11.10;;;7.40;99.90;;;;;;5053901;28;20459;-66
2022/12/24 11:53:34;;;;;;;13.97;9.83;;;7.40;99.90;;;;;;5054273;28;20466;-68
2022/12/24 11:56:06;;;;;;;15.30;10.77;;;7.40;99.90;;;;;;5053873;28;20478;-67
2022/12/24 11:58:37;;;;;;;16.60;10.83;;;7.40;99.90;;;;;;5054084;28;20755;-67
2022/12/24 12:01:14;;;;;;;15.40;11.20;;;7.50;99.90;;;;;;5054030;28;20443;-67
2022/12/24 12:03:45;;;;;;;16.50;10.43;;;7.50;99.90;;;;;;5054340;28;20443;-67
2022/12/24 12:06:27;;;;;;;15.43;11.40;;;7.50;99.90;;;;;;5053823;28;20465;-67
2022/12/24 12:08:59;;;;;;;18.27;11.83;;;7.50;99.90;;;;;;5053771;28;20772;-67
2022/12/24 12:11:27;;;;;;;16.07;11.20;;;7.50;99.90;;;;;;5057216;28;20530;-66
2022/12/24 12:13:56;;;;;;;24.30;12.23;;;7.60;99.90;;;;;;5057786;28;20454;-67
2022/12/24 12:16:29;;;;;;;16.50;11.10;;;7.60;99.90;;;;;;5057261;28;20815;-67
2022/12/24 12:19:03;;;;;;;14.17;10.40;;;7.60;99.90;;;;;;5056994;28;20454;-67
2022/12/24 12:21:38;;;;;;;13.07;9.40;;;7.60;99.90;;;;;;5057336;28;20534;-68
2022/12/24 12:24:13;;;;;;;16.60;10.93;;;7.60;99.90;;;;;;5057204;28;20439;-68
2022/12/24 12:26:42;;;;;;;13.53;10.30;;;7.70;99.90;;;;;;5056967;28;20443;-66
2022/12/24 12:29:28;;;;;;;15.20;10.77;;;7.70;99.90;;;;;;5057100;28;20469;-67
2022/12/24 12:31:59;;;;;;;15.83;11.03;;;7.80;99.90;;;;;;5057045;28;20443;-66
2022/12/24 12:34:32;;;;;;;15.10;10.50;;;7.80;99.90;;;;;;5056799;28;20587;-67
2022/12/24 12:37:06;;;;;;;16.67;11.00;;;7.90;99.90;;;;;;5056667;28;20951;-69
2022/12/24 12:39:36;;;;;;;13.73;10.30;;;7.90;99.90;;;;;;5057706;28;20762;-67
2022/12/24 12:42:09;;;;;;;14.47;10.13;;;7.90;99.90;;;;;;5056787;28;20455;-67
2022/12/24 12:44:55;;;;;;;13.73;10.63;;;8.00;99.90;;;;;;5056938;28;20454;-67
2022/12/24 12:47:50;;;;;;;11.10;8.93;;;8.00;99.90;;;;;;5056243;28;20487;-67
2022/12/24 12:50:23;;;;;;;20.23;10.10;;;8.10;99.90;;;;;;5056128;28;20444;-67
2022/12/24 12:53:05;;;;;;;14.83;10.30;;;8.00;99.90;;;;;;5056539;28;20534;-67
2022/12/24 12:55:42;;;;;;;13.70;10.60;;;8.10;99.90;;;;;;5056476;28;20471;-67
2022/12/24 12:58:16;;;;;;;13.43;10.63;;;8.10;99.90;;;;;;5056714;28;20447;-67
2022/12/24 13:00:47;;;;;;;17.43;10.87;;;8.20;99.90;;;;;;5056044;28;20447;-68
2022/12/24 13:03:33;;;;;;;15.63;10.50;;;8.30;99.90;;;;;;5056455;28;20439;-68
2022/12/24 13:06:21;;;;;;;15.37;10.70;;;8.40;99.90;;;;;;5056359;28;20529;-67
2022/12/24 13:09:11;;;;;;;14.70;10.13;;;8.40;99.90;;;;;;5051919;28;20792;-67